Time;durP1;ratioP1;P1;durP2;ratioP2;P2;SDS_P1;SDS_P2;PMS_P1;PMS_P2;Temp;Humidity;BMP_temperature;BMP_pressure;BME280_temperature;BME280_humidity;BME280_pressure;Samples;Min_cycle;Max_cycle;Signal;HPM_P1;HPM_P2
2020/12/17 00:00:48;;;;;;;146.60;14.60;;;2.90;99.90;;;;;;5072356;28;20488;-68
2020/12/17 00:03:15;;;;;;;129.03;14.17;;;2.90;99.90;;;;;;5072931;28;20426;-68
2020/12/17 00:05:42;;;;;;;46.47;11.27;;;2.90;99.90;;;;;;5072967;28;20422;-68
2020/12/17 00:08:09;;;;;;;59.53;10.77;;;2.90;99.90;;;;;;5072752;28;20453;-68
2020/12/17 00:10:38;;;;;;;45.23;10.07;;;2.80;99.90;;;;;;5072773;28;20544;-67
2020/12/17 00:13:05;;;;;;;78.13;13.50;;;2.80;99.90;;;;;;5072861;28;20460;-68
2020/12/17 00:15:32;;;;;;;91.07;13.47;;;2.90;99.90;;;;;;5072606;28;20430;-68
2020/12/17 00:17:59;;;;;;;56.40;12.57;;;2.80;99.90;;;;;;5072691;28;20422;-68
2020/12/17 00:20:25;;;;;;;31.30;9.97;;;2.80;99.90;;;;;;5072741;28;20476;-68
2020/12/17 00:22:52;;;;;;;136.40;14.70;;;2.80;99.90;;;;;;5071529;28;20436;-68
2020/12/17 00:25:19;;;;;;;100.53;16.10;;;2.80;99.90;;;;;;5072452;28;20425;-69
2020/12/17 00:27:47;;;;;;;111.90;15.53;;;2.80;99.90;;;;;;5072596;28;20430;-68
2020/12/17 00:30:15;;;;;;;105.17;12.60;;;2.70;99.90;;;;;;5070800;28;20477;-68
2020/12/17 00:32:42;;;;;;;100.37;14.30;;;2.70;99.90;;;;;;5072219;28;20452;-68
2020/12/17 00:35:09;;;;;;;81.23;12.47;;;2.70;99.90;;;;;;5072798;28;20927;-67
2020/12/17 00:37:37;;;;;;;62.23;10.67;;;2.70;99.90;;;;;;5078446;28;21003;-68
2020/12/17 00:40:06;;;;;;;132.13;14.03;;;2.80;99.90;;;;;;5082429;28;20473;-68
2020/12/17 00:42:34;;;;;;;102.97;12.30;;;2.70;99.90;;;;;;5091961;28;20425;-68
2020/12/17 00:45:00;;;;;;;57.70;11.20;;;2.80;99.90;;;;;;5071881;28;20501;-68
2020/12/17 00:47:29;;;;;;;121.67;13.03;;;2.70;99.90;;;;;;5072089;28;20419;-68
2020/12/17 00:49:56;;;;;;;80.43;12.50;;;2.80;99.90;;;;;;5071945;28;20442;-68
2020/12/17 00:52:23;;;;;;;115.40;14.30;;;2.70;99.90;;;;;;5071782;28;20507;-68
2020/12/17 00:54:50;;;;;;;126.47;15.93;;;2.70;99.90;;;;;;5071876;28;20422;-68
2020/12/17 00:57:17;;;;;;;106.10;14.40;;;2.70;99.90;;;;;;5071840;28;20787;-68
2020/12/17 00:59:45;;;;;;;90.60;11.60;;;2.60;99.90;;;;;;5071265;28;20481;-68
2020/12/17 01:02:12;;;;;;;130.03;12.83;;;2.70;99.90;;;;;;5071561;28;20939;-68
2020/12/17 01:04:38;;;;;;;74.87;11.40;;;2.70;99.90;;;;;;5071613;28;20430;-68
2020/12/17 01:07:05;;;;;;;70.80;11.53;;;2.70;99.90;;;;;;5071728;28;20513;-69
2020/12/17 01:09:32;;;;;;;76.83;11.17;;;2.70;99.90;;;;;;5071483;28;20446;-68
2020/12/17 01:11:58;;;;;;;122.13;14.90;;;2.60;99.90;;;;;;5071519;28;20496;-68
2020/12/17 01:14:25;;;;;;;121.57;13.47;;;2.60;99.90;;;;;;5071246;28;20430;-68
2020/12/17 01:16:52;;;;;;;149.40;12.47;;;2.60;99.90;;;;;;5071893;28;20934;-68
2020/12/17 01:19:19;;;;;;;83.50;12.23;;;2.60;99.90;;;;;;5071209;28;20473;-68
2020/12/17 01:21:50;;;;;;;128.57;15.30;;;2.60;99.90;;;;;;5070607;28;20524;-68
2020/12/17 01:24:17;;;;;;;122.27;12.43;;;2.60;99.90;;;;;;5071312;28;20919;-68
2020/12/17 01:26:44;;;;;;;85.30;12.00;;;2.50;99.90;;;;;;5071413;28;20925;-68
2020/12/17 01:29:10;;;;;;;66.00;12.23;;;2.50;99.90;;;;;;5070975;28;20995;-68
2020/12/17 01:31:37;;;;;;;71.73;11.00;;;2.50;99.90;;;;;;5071201;28;20492;-67
2020/12/17 01:34:04;;;;;;;96.57;12.97;;;2.30;99.90;;;;;;5071181;28;20438;-68
2020/12/17 01:36:31;;;;;;;103.63;12.60;;;2.20;99.90;;;;;;5070919;28;20430;-68
2020/12/17 01:38:58;;;;;;;159.03;16.07;;;2.20;99.90;;;;;;5071147;28;20438;-68
2020/12/17 01:41:25;;;;;;;119.00;13.07;;;2.10;99.90;;;;;;5070806;28;20429;-68
2020/12/17 01:43:51;;;;;;;130.50;13.83;;;2.00;99.90;;;;;;5070984;28;20483;-68
2020/12/17 01:46:18;;;;;;;129.27;14.80;;;2.00;99.90;;;;;;5070890;28;20430;-68
2020/12/17 01:48:45;;;;;;;124.67;16.90;;;2.00;99.90;;;;;;5070982;28;20448;-68
2020/12/17 01:51:12;;;;;;;88.60;12.83;;;2.00;99.90;;;;;;5070479;28;20857;-68
2020/12/17 01:53:41;;;;;;;69.37;9.27;;;2.00;99.90;;;;;;5071100;28;20942;-68
2020/12/17 01:56:16;;;;;;;163.17;17.30;;;2.00;99.90;;;;;;5070850;28;20429;-68
2020/12/17 01:58:53;;;;;;;186.27;18.20;;;1.90;99.90;;;;;;5070719;28;20425;-67
2020/12/17 02:01:25;;;;;;;162.23;18.40;;;1.90;99.90;;;;;;5070702;28;20445;-68
2020/12/17 02:03:55;;;;;;;200.73;22.57;;;1.90;99.90;;;;;;5071043;28;20426;-68
2020/12/17 02:06:23;;;;;;;203.87;19.70;;;1.90;99.90;;;;;;5070663;28;20472;-68
2020/12/17 02:08:50;;;;;;;220.40;21.60;;;1.80;99.90;;;;;;5070755;28;20934;-67
2020/12/17 02:11:17;;;;;;;278.43;22.40;;;1.90;99.90;;;;;;5070440;28;20446;-68
2020/12/17 02:13:45;;;;;;;224.60;24.03;;;1.90;99.90;;;;;;5070719;28;20787;-68
2020/12/17 02:16:13;;;;;;;157.40;15.63;;;1.90;99.90;;;;;;5070932;28;20794;-68
2020/12/17 02:18:39;;;;;;;194.37;15.60;;;2.00;99.90;;;;;;5070721;28;20434;-68
2020/12/17 02:21:06;;;;;;;249.90;21.03;;;1.90;99.90;;;;;;5070077;28;20488;-68
2020/12/17 02:23:34;;;;;;;187.93;18.87;;;1.90;99.90;;;;;;5070765;28;20433;-68
2020/12/17 02:26:02;;;;;;;217.43;18.00;;;1.80;99.90;;;;;;5070620;28;20438;-68
2020/12/17 02:28:29;;;;;;;187.20;19.30;;;1.90;99.90;;;;;;5070629;28;20453;-68
2020/12/17 02:30:56;;;;;;;220.20;19.70;;;1.90;99.90;;;;;;5070581;28;20449;-68
2020/12/17 02:33:22;;;;;;;119.43;15.10;;;1.90;99.90;;;;;;5070503;28;20429;-68
2020/12/17 02:35:49;;;;;;;112.63;13.73;;;1.90;99.90;;;;;;5070474;28;20419;-68
2020/12/17 02:38:16;;;;;;;161.80;14.50;;;1.90;99.90;;;;;;5070521;28;20772;-68
2020/12/17 02:40:43;;;;;;;236.37;18.53;;;1.90;99.90;;;;;;5080184;28;20495;-68
2020/12/17 02:43:11;;;;;;;217.30;15.00;;;1.90;99.90;;;;;;5073945;28;20511;-68
2020/12/17 02:45:43;;;;;;;107.80;14.63;;;1.90;99.90;;;;;;5070450;28;20426;-68
2020/12/17 02:48:10;;;;;;;79.53;13.27;;;1.90;99.90;;;;;;5070331;28;20418;-68
2020/12/17 02:50:38;;;;;;;150.50;13.50;;;1.90;99.90;;;;;;5069985;28;20449;-67
2020/12/17 02:53:05;;;;;;;155.10;18.30;;;1.80;99.90;;;;;;5071689;28;20915;-68
2020/12/17 02:55:31;;;;;;;85.80;11.40;;;1.80;99.90;;;;;;5074289;28;20509;-68
2020/12/17 02:57:58;;;;;;;176.47;17.60;;;1.80;99.90;;;;;;5074190;28;20418;-68
2020/12/17 03:00:26;;;;;;;125.43;15.37;;;1.80;99.90;;;;;;5073940;28;20969;-68
2020/12/17 03:02:52;;;;;;;112.37;13.37;;;1.80;99.90;;;;;;5073935;28;20795;-69
2020/12/17 03:05:19;;;;;;;203.27;17.67;;;1.80;99.90;;;;;;5074089;28;20486;-68
2020/12/17 03:07:46;;;;;;;156.43;16.00;;;1.80;99.90;;;;;;5073718;28;20428;-68
2020/12/17 03:10:13;;;;;;;97.67;12.80;;;1.80;99.90;;;;;;5074152;28;20963;-68
2020/12/17 03:12:41;;;;;;;151.93;15.30;;;1.70;99.90;;;;;;5073813;28;20429;-67
2020/12/17 03:15:08;;;;;;;240.83;20.53;;;1.70;99.90;;;;;;5073909;28;21093;-68
2020/12/17 03:17:36;;;;;;;155.77;17.70;;;1.70;99.90;;;;;;5073673;28;20428;-68
2020/12/17 03:20:04;;;;;;;203.77;21.03;;;1.70;99.90;;;;;;5073468;28;20477;-68
2020/12/17 03:22:31;;;;;;;268.13;19.10;;;1.70;99.90;;;;;;5073332;28;20909;-68
2020/12/17 03:24:57;;;;;;;97.13;13.33;;;1.80;99.90;;;;;;5073701;28;20426;-68
2020/12/17 03:27:24;;;;;;;180.63;17.90;;;1.80;99.90;;;;;;5073522;28;20425;-68
2020/12/17 03:29:51;;;;;;;183.03;21.23;;;1.80;99.90;;;;;;5073475;28;20457;-68
2020/12/17 03:32:18;;;;;;;212.10;16.60;;;1.80;99.90;;;;;;5073431;28;21094;-68
2020/12/17 03:34:46;;;;;;;164.97;18.00;;;1.80;99.90;;;;;;5073503;28;20794;-68
2020/12/17 03:37:12;;;;;;;137.90;16.40;;;1.80;99.90;;;;;;5073564;28;20894;-68
2020/12/17 03:39:39;;;;;;;215.53;17.97;;;1.80;99.90;;;;;;5073110;28;20477;-68
2020/12/17 03:42:06;;;;;;;278.07;22.20;;;1.90;99.90;;;;;;5073231;28;20919;-68
2020/12/17 03:44:32;;;;;;;260.70;20.10;;;1.80;99.90;;;;;;5073270;28;20486;-68
2020/12/17 03:46:59;;;;;;;235.87;19.80;;;1.80;99.90;;;;;;5073287;28;20426;-68
2020/12/17 03:49:26;;;;;;;85.80;11.83;;;1.80;99.90;;;;;;5073018;28;20449;-67
2020/12/17 03:51:53;;;;;;;244.17;19.93;;;1.70;99.90;;;;;;5072672;28;20426;-68
2020/12/17 03:54:20;;;;;;;100.63;14.60;;;1.70;99.90;;;;;;5073156;28;20429;-68
2020/12/17 03:56:47;;;;;;;173.93;15.07;;;1.70;99.90;;;;;;5073073;28;20930;-68
2020/12/17 03:59:14;;;;;;;151.67;15.73;;;1.70;99.90;;;;;;5072767;28;20427;-68
2020/12/17 04:01:40;;;;;;;267.90;23.57;;;1.80;99.90;;;;;;5072748;28;20429;-68
2020/12/17 04:04:07;;;;;;;335.17;34.30;;;1.70;99.90;;;;;;5072087;28;20483;-68
2020/12/17 04:06:34;;;;;;;276.40;24.13;;;1.70;99.90;;;;;;5071921;28;20445;-68
2020/12/17 04:09:01;;;;;;;315.57;25.37;;;1.70;99.90;;;;;;5072756;28;20451;-70
2020/12/17 04:11:28;;;;;;;122.27;16.73;;;1.70;99.90;;;;;;5072598;28;20438;-70
2020/12/17 04:13:54;;;;;;;305.00;27.10;;;1.70;99.90;;;;;;5072919;28;20434;-69
2020/12/17 04:16:21;;;;;;;323.27;21.60;;;1.70;99.90;;;;;;5072418;28;20432;-69
2020/12/17 04:18:48;;;;;;;269.83;26.40;;;1.70;99.90;;;;;;5072821;28;20440;-70
2020/12/17 04:21:14;;;;;;;214.10;22.37;;;1.70;99.90;;;;;;5071917;28;20981;-69
2020/12/17 04:23:41;;;;;;;187.27;19.70;;;1.70;99.90;;;;;;5071976;28;20842;-71
2020/12/17 04:26:12;;;;;;;133.70;16.37;;;1.70;99.90;;;;;;5072611;28;20434;-69
2020/12/17 04:28:39;;;;;;;229.40;19.30;;;1.70;99.90;;;;;;5072492;28;20444;-69
2020/12/17 04:31:06;;;;;;;174.20;20.00;;;1.70;99.90;;;;;;5072248;28;20456;-70
2020/12/17 04:33:32;;;;;;;251.60;26.60;;;1.70;99.90;;;;;;5072450;28;20683;-69
2020/12/17 04:35:59;;;;;;;363.07;26.27;;;1.70;99.90;;;;;;5072034;28;20450;-69
2020/12/17 04:38:26;;;;;;;280.03;25.33;;;1.80;99.90;;;;;;5083941;28;20440;-69
2020/12/17 04:40:53;;;;;;;61.30;8.23;;;1.80;99.90;;;;;;5074073;28;20481;-69
2020/12/17 04:43:20;;;;;;;431.27;35.10;;;1.80;99.90;;;;;;5072024;28;20440;-69
2020/12/17 04:45:47;;;;;;;404.17;34.43;;;1.80;99.90;;;;;;5072039;28;20989;-70
2020/12/17 04:48:18;;;;;;;332.90;26.50;;;1.90;99.90;;;;;;5071998;28;21102;-70
2020/12/17 04:50:46;;;;;;;445.33;38.80;;;1.90;99.90;;;;;;5071753;28;20453;-70
2020/12/17 04:53:15;;;;;;;519.97;53.80;;;1.90;99.90;;;;;;5071919;28;20492;-68
2020/12/17 04:55:43;;;;;;;322.20;29.83;;;1.80;99.90;;;;;;5071863;28;20430;-69
2020/12/17 04:58:10;;;;;;;381.90;35.87;;;1.80;99.90;;;;;;5071885;28;20422;-69
2020/12/17 05:00:41;;;;;;;370.90;29.70;;;1.80;99.90;;;;;;5071432;28;20530;-74
2020/12/17 05:03:12;;;;;;;440.93;34.27;;;1.90;99.90;;;;;;5071787;28;20426;-70
2020/12/17 05:05:39;;;;;;;561.40;51.13;;;1.90;99.90;;;;;;5071660;28;20431;-70
2020/12/17 05:08:06;;;;;;;433.60;38.00;;;1.90;99.90;;;;;;5071430;28;20509;-69
2020/12/17 05:10:32;;;;;;;489.20;38.80;;;1.90;99.90;;;;;;5071339;28;20451;-69
2020/12/17 05:12:59;;;;;;;465.77;41.77;;;1.90;99.90;;;;;;5071667;28;20475;-69
2020/12/17 05:15:27;;;;;;;496.33;40.00;;;2.00;99.90;;;;;;5082090;28;20437;-69
2020/12/17 05:17:54;;;;;;;365.90;25.97;;;2.00;99.90;;;;;;5071543;28;20487;-69
2020/12/17 05:20:21;;;;;;;326.47;30.23;;;2.00;99.90;;;;;;5071613;28;20466;-71
2020/12/17 05:22:49;;;;;;;478.27;31.20;;;2.00;99.90;;;;;;5071181;28;20965;-71
2020/12/17 05:25:16;;;;;;;197.60;22.17;;;1.90;99.90;;;;;;5071026;28;20430;-70
2020/12/17 05:27:43;;;;;;;392.53;33.20;;;1.90;99.90;;;;;;5071290;28;20434;-70
2020/12/17 05:30:10;;;;;;;463.23;41.67;;;1.90;99.90;;;;;;5071419;28;20445;-71
2020/12/17 05:32:41;;;;;;;373.23;26.33;;;1.90;99.90;;;;;;5071037;28;20450;-70
2020/12/17 05:35:12;;;;;;;199.93;20.03;;;1.90;99.90;;;;;;5071339;28;20430;-70
2020/12/17 05:37:43;;;;;;;445.17;31.17;;;1.90;99.90;;;;;;5075401;28;20445;-70
2020/12/17 05:40:13;;;;;;;343.77;27.03;;;1.90;99.90;;;;;;5077824;28;20474;-70
2020/12/17 05:42:41;;;;;;;320.67;29.60;;;1.90;99.90;;;;;;5070971;28;20468;-69
2020/12/17 05:45:23;;;;;;;358.03;30.77;;;1.80;99.90;;;;;;5071134;28;20437;-70
2020/12/17 05:48:08;;;;;;;293.07;30.80;;;1.80;99.90;;;;;;5071095;28;20426;-72
2020/12/17 05:50:52;;;;;;;250.30;44.30;;;1.90;99.90;;;;;;5071152;28;20950;-70
2020/12/17 05:53:19;;;;;;;270.60;25.83;;;1.80;99.90;;;;;;5070631;28;20432;-71
2020/12/17 05:55:46;;;;;;;481.23;34.70;;;1.80;99.90;;;;;;5071267;28;20422;-69
2020/12/17 05:58:13;;;;;;;267.00;28.87;;;1.80;99.90;;;;;;5070885;28;20432;-70
2020/12/17 06:00:40;;;;;;;372.57;30.30;;;1.90;99.90;;;;;;5070832;28;20519;-69
2020/12/17 06:03:11;;;;;;;380.60;30.90;;;1.90;99.90;;;;;;5070898;28;20773;-69
2020/12/17 06:05:44;;;;;;;276.53;25.67;;;1.90;99.90;;;;;;5070904;28;20422;-69
2020/12/17 06:08:17;;;;;;;301.87;24.97;;;1.90;99.90;;;;;;5070460;28;20430;-67
2020/12/17 06:10:48;;;;;;;272.00;22.53;;;1.90;99.90;;;;;;5070665;28;20520;-68
2020/12/17 06:13:16;;;;;;;270.70;29.50;;;1.90;99.90;;;;;;5073625;28;20444;-68
2020/12/17 06:15:45;;;;;;;290.70;29.43;;;1.90;99.90;;;;;;5080248;28;20432;-68
2020/12/17 06:18:13;;;;;;;205.63;23.50;;;1.90;99.90;;;;;;5079392;28;20425;-68
2020/12/17 06:20:43;;;;;;;278.23;25.97;;;1.90;99.90;;;;;;5070354;28;20513;-67
2020/12/17 06:23:14;;;;;;;335.80;25.83;;;1.90;99.90;;;;;;5070701;28;20430;-68
2020/12/17 06:25:41;;;;;;;229.00;21.77;;;1.80;99.90;;;;;;5070619;28;20525;-68
2020/12/17 06:28:32;;;;;;;106.33;15.00;;;1.80;99.90;;;;;;5072291;28;20931;-67
2020/12/17 06:31:02;;;;;;;268.23;20.87;;;1.80;99.90;;;;;;5081488;28;20460;-68
2020/12/17 06:33:29;;;;;;;169.90;17.13;;;1.80;99.90;;;;;;5095235;28;20425;-67
2020/12/17 06:36:01;;;;;;;235.60;20.40;;;1.80;99.90;;;;;;5094806;28;20427;-67
2020/12/17 06:38:28;;;;;;;243.33;22.27;;;1.80;99.90;;;;;;5094406;28;20439;-67
2020/12/17 06:40:55;;;;;;;232.53;21.47;;;1.80;99.90;;;;;;5094835;28;20480;-67
2020/12/17 06:43:33;;;;;;;281.37;22.53;;;1.80;99.90;;;;;;5094690;28;20456;-67
2020/12/17 06:46:01;;;;;;;301.57;24.23;;;1.80;99.90;;;;;;5094876;28;20473;-67
2020/12/17 06:48:33;;;;;;;202.90;20.33;;;1.90;99.90;;;;;;5094684;28;20428;-68
2020/12/17 06:51:01;;;;;;;161.67;17.10;;;1.90;99.90;;;;;;5094622;28;20456;-68
2020/12/17 06:53:39;;;;;;;311.47;22.03;;;1.90;99.90;;;;;;5087757;28;20438;-68
2020/12/17 06:56:06;;;;;;;283.47;31.67;;;1.90;99.90;;;;;;5074438;28;20510;-69
2020/12/17 06:58:33;;;;;;;150.50;17.97;;;1.90;99.90;;;;;;5074540;28;20487;-69
2020/12/17 07:01:00;;;;;;;118.33;14.87;;;2.00;99.90;;;;;;5073745;28;20473;-71
2020/12/17 07:03:44;;;;;;;164.97;16.60;;;2.20;99.90;;;;;;5074398;28;20555;-69
2020/12/17 07:06:20;;;;;;;169.87;18.10;;;2.30;99.90;;;;;;5074082;28;20791;-69
2020/12/17 07:08:49;;;;;;;228.37;22.90;;;2.20;99.90;;;;;;5073465;28;20433;-70
2020/12/17 07:11:39;;;;;;;205.87;19.13;;;2.20;99.90;;;;;;5073650;28;20849;-69
2020/12/17 07:14:07;;;;;;;220.97;21.30;;;2.20;99.90;;;;;;5074086;28;20845;-69
2020/12/17 07:16:36;;;;;;;277.00;22.67;;;2.20;99.90;;;;;;5073850;28;20968;-69
2020/12/17 07:19:29;;;;;;;159.17;17.27;;;2.30;99.90;;;;;;5073763;28;20477;-69
2020/12/17 07:22:03;;;;;;;169.20;19.50;;;2.30;99.90;;;;;;5073502;28;20425;-69
2020/12/17 07:24:35;;;;;;;139.87;18.10;;;2.30;99.90;;;;;;5073444;28;20497;-71
2020/12/17 07:27:07;;;;;;;155.67;17.80;;;2.30;99.90;;;;;;5073800;28;20429;-69
2020/12/17 07:29:39;;;;;;;155.73;16.17;;;2.20;99.90;;;;;;5073484;28;20463;-69
2020/12/17 07:32:29;;;;;;;298.30;25.17;;;2.30;99.90;;;;;;5073289;28;20409;-68
2020/12/17 07:34:57;;;;;;;295.30;23.40;;;2.20;99.90;;;;;;5073635;28;20437;-69
2020/12/17 07:37:39;;;;;;;137.07;20.90;;;2.20;99.90;;;;;;5073453;28;20444;-69
2020/12/17 07:40:18;;;;;;;185.90;20.10;;;2.20;99.90;;;;;;5073475;28;20480;-68
2020/12/17 07:42:59;;;;;;;356.20;26.00;;;2.20;99.90;;;;;;5080601;28;20938;-68
2020/12/17 07:45:48;;;;;;;207.80;20.07;;;2.20;99.90;;;;;;5073219;28;20422;-68
2020/12/17 07:48:44;;;;;;;302.50;25.00;;;2.30;99.90;;;;;;5065117;28;20445;-68
2020/12/17 07:51:33;;;;;;;166.67;18.07;;;2.20;99.90;;;;;;5072892;28;20484;-68
2020/12/17 07:54:05;;;;;;;178.10;20.43;;;2.20;99.90;;;;;;5072936;28;20444;-68
2020/12/17 07:56:33;;;;;;;178.00;20.90;;;2.20;99.90;;;;;;5073383;28;20418;-68
2020/12/17 07:59:05;;;;;;;202.07;19.73;;;2.20;99.90;;;;;;5074175;28;20454;-68
2020/12/17 08:01:32;;;;;;;147.83;18.83;;;2.20;99.90;;;;;;5072652;28;20473;-68
2020/12/17 08:03:59;;;;;;;246.43;24.57;;;2.20;99.90;;;;;;5073158;28;20430;-68
2020/12/17 08:06:28;;;;;;;353.97;30.43;;;2.20;99.90;;;;;;5073093;28;20434;-68
2020/12/17 08:08:56;;;;;;;260.33;25.10;;;2.20;99.90;;;;;;5072590;28;20422;-67
2020/12/17 08:11:25;;;;;;;214.53;19.27;;;2.30;99.90;;;;;;5072762;28;20444;-67
2020/12/17 08:14:03;;;;;;;267.07;20.67;;;2.30;99.90;;;;;;5072693;28;20442;-68
2020/12/17 08:16:30;;;;;;;192.47;21.50;;;2.30;99.90;;;;;;5072787;28;20897;-68
2020/12/17 08:18:58;;;;;;;208.17;19.80;;;2.30;99.90;;;;;;5072584;28;20433;-67
2020/12/17 08:21:26;;;;;;;190.30;18.57;;;2.30;99.90;;;;;;5072404;28;20470;-68
2020/12/17 08:23:53;;;;;;;153.87;17.90;;;2.40;99.90;;;;;;5072463;28;20464;-68
2020/12/17 08:26:23;;;;;;;198.30;20.97;;;2.30;99.90;;;;;;5072320;28;20422;-68
2020/12/17 08:28:50;;;;;;;230.27;22.57;;;2.30;99.90;;;;;;5072118;28;20449;-68
2020/12/17 08:31:19;;;;;;;230.90;24.30;;;2.30;99.90;;;;;;5072261;28;20495;-68
2020/12/17 08:33:48;;;;;;;163.50;18.93;;;2.30;99.90;;;;;;5072328;28;20972;-69
2020/12/17 08:36:16;;;;;;;231.90;23.37;;;2.40;99.90;;;;;;5072521;28;20430;-69
2020/12/17 08:38:54;;;;;;;161.47;20.10;;;2.40;99.90;;;;;;5071755;28;20432;-69
2020/12/17 08:41:26;;;;;;;207.20;21.53;;;2.40;99.90;;;;;;5071982;28;20476;-71
2020/12/17 08:43:55;;;;;;;184.03;17.80;;;2.40;99.90;;;;;;5082164;28;20449;-69
2020/12/17 08:46:23;;;;;;;279.83;22.40;;;2.40;99.90;;;;;;5080666;28;20457;-68
2020/12/17 08:48:51;;;;;;;151.00;15.97;;;2.50;99.90;;;;;;5084734;28;20429;-67
2020/12/17 08:51:19;;;;;;;222.93;21.77;;;2.40;99.90;;;;;;5091366;28;20445;-69
2020/12/17 08:53:46;;;;;;;281.77;23.00;;;2.40;99.90;;;;;;5092287;28;20425;-68
2020/12/17 08:56:15;;;;;;;148.47;22.23;;;2.50;99.90;;;;;;5092279;28;20429;-68
2020/12/17 08:58:51;;;;;;;239.97;18.50;;;2.50;99.90;;;;;;5092019;28;20435;-68
2020/12/17 09:01:26;;;;;;;222.30;20.77;;;2.50;99.90;;;;;;5071545;28;20503;-68
2020/12/17 09:03:53;;;;;;;197.67;18.47;;;2.60;99.90;;;;;;5071896;28;20806;-69
2020/12/17 09:06:28;;;;;;;71.33;11.73;;;2.70;99.90;;;;;;5071795;28;20513;-68
2020/12/17 09:08:55;;;;;;;174.37;18.17;;;2.70;99.90;;;;;;5070705;28;20417;-68
2020/12/17 09:11:32;;;;;;;143.60;20.37;;;2.70;99.90;;;;;;5071325;28;20507;-68
2020/12/17 09:14:02;;;;;;;234.50;25.87;;;2.70;99.90;;;;;;5071652;28;20426;-68
2020/12/17 09:16:30;;;;;;;170.60;18.77;;;2.70;99.90;;;;;;5071512;28;20437;-68
2020/12/17 09:18:58;;;;;;;151.43;20.10;;;2.70;99.90;;;;;;5071518;28;20429;-69
2020/12/17 09:21:25;;;;;;;125.00;16.17;;;2.70;99.90;;;;;;5071302;28;20478;-68
2020/12/17 09:23:56;;;;;;;123.60;15.83;;;2.80;99.90;;;;;;5071251;28;20454;-68
2020/12/17 09:26:23;;;;;;;147.63;17.03;;;2.80;99.90;;;;;;5071618;28;20927;-68
2020/12/17 09:28:55;;;;;;;188.43;16.20;;;2.80;99.90;;;;;;5071103;28;20442;-68
2020/12/17 09:31:28;;;;;;;219.30;20.40;;;2.80;99.90;;;;;;5071107;28;20495;-68
2020/12/17 09:34:12;;;;;;;118.50;15.87;;;2.80;99.90;;;;;;5071263;28;20795;-68
2020/12/17 09:36:40;;;;;;;81.03;16.20;;;2.80;99.90;;;;;;5071348;28;20436;-68
2020/12/17 09:39:10;;;;;;;131.43;24.17;;;2.90;99.90;;;;;;5070711;28;20789;-68
2020/12/17 09:41:37;;;;;;;125.43;19.83;;;2.90;99.90;;;;;;5076716;28;20551;-68
2020/12/17 09:44:04;;;;;;;135.60;18.13;;;2.90;99.90;;;;;;5088790;28;20454;-68
2020/12/17 09:46:45;;;;;;;180.27;20.10;;;2.90;99.90;;;;;;5080134;28;20992;-69
2020/12/17 09:49:32;;;;;;;107.30;15.33;;;2.90;99.90;;;;;;5070706;28;20426;-68
2020/12/17 09:52:05;;;;;;;210.67;20.53;;;3.00;99.90;;;;;;5071186;28;20437;-69
2020/12/17 09:54:32;;;;;;;165.50;16.43;;;3.00;99.90;;;;;;5070807;28;20422;-69
2020/12/17 09:57:03;;;;;;;55.53;11.90;;;3.10;99.90;;;;;;5071040;28;20829;-68
2020/12/17 09:59:30;;;;;;;49.47;14.07;;;3.10;99.90;;;;;;5070856;28;20450;-68
2020/12/17 10:02:01;;;;;;;85.43;15.53;;;3.20;99.90;;;;;;5086636;28;20472;-68
2020/12/17 10:04:28;;;;;;;49.17;12.20;;;3.10;99.90;;;;;;5077023;28;20949;-68
2020/12/17 10:06:55;;;;;;;40.13;11.87;;;3.10;99.90;;;;;;5091247;28;20417;-69
2020/12/17 10:09:22;;;;;;;88.30;15.20;;;3.10;99.90;;;;;;5075560;28;20475;-69
2020/12/17 10:11:50;;;;;;;29.00;11.43;;;3.20;99.90;;;;;;5070721;28;20985;-69
2020/12/17 10:14:18;;;;;;;25.73;10.47;;;3.30;99.90;;;;;;5071038;28;20439;-68
2020/12/17 10:16:44;;;;;;;21.90;12.47;;;3.30;99.90;;;;;;5070184;28;20426;-68
2020/12/17 10:19:13;;;;;;;24.50;9.83;;;3.40;99.90;;;;;;5070246;28;20838;-68
2020/12/17 10:21:40;;;;;;;26.33;12.20;;;3.40;99.90;;;;;;5070369;28;20474;-68
2020/12/17 10:24:07;;;;;;;25.87;12.23;;;3.50;99.90;;;;;;5070695;28;20442;-68
2020/12/17 10:26:34;;;;;;;22.07;11.13;;;3.60;99.90;;;;;;5070725;28;20422;-69
2020/12/17 10:29:01;;;;;;;25.50;12.70;;;3.70;99.90;;;;;;5070209;28;20438;-68
2020/12/17 10:31:28;;;;;;;22.83;12.70;;;3.80;99.90;;;;;;5070325;28;20806;-69
2020/12/17 10:33:56;;;;;;;20.33;10.87;;;3.80;99.90;;;;;;5070765;28;20426;-68
2020/12/17 10:36:24;;;;;;;27.00;11.77;;;4.00;99.90;;;;;;5070516;28;20430;-68
2020/12/17 10:38:51;;;;;;;23.03;11.20;;;4.00;99.90;;;;;;5070634;28;20776;-69
2020/12/17 10:41:24;;;;;;;21.00;10.77;;;4.20;99.90;;;;;;5069968;28;20575;-69
2020/12/17 10:43:51;;;;;;;19.60;11.20;;;4.30;99.90;;;;;;5070534;28;20472;-68
2020/12/17 10:46:18;;;;;;;21.87;11.77;;;4.30;99.90;;;;;;5070386;28;20508;-68
2020/12/17 10:48:44;;;;;;;19.17;11.80;;;4.40;99.90;;;;;;5070487;28;20429;-68
2020/12/17 10:51:13;;;;;;;19.67;11.30;;;4.40;99.90;;;;;;5070424;28;20969;-69
2020/12/17 10:53:41;;;;;;;19.30;11.10;;;4.40;99.90;;;;;;5078616;28;20767;-69
2020/12/17 10:56:08;;;;;;;22.47;10.67;;;4.40;99.90;;;;;;5076412;28;20937;-68
2020/12/17 10:58:34;;;;;;;21.57;10.57;;;4.50;99.90;;;;;;5070062;28;20448;-69
2020/12/17 11:01:02;;;;;;;24.50;11.37;;;4.40;99.90;;;;;;5069988;28;20489;-69
2020/12/17 11:03:29;;;;;;;21.60;11.83;;;4.50;99.90;;;;;;5070416;28;20915;-68
2020/12/17 11:05:56;;;;;;;18.47;12.07;;;4.50;99.90;;;;;;5070452;28;20516;-68
2020/12/17 11:08:23;;;;;;;17.63;9.93;;;4.60;99.90;;;;;;5070114;28;20425;-69
2020/12/17 11:10:51;;;;;;;15.73;10.53;;;4.70;99.90;;;;;;5069599;28;20465;-68
2020/12/17 11:13:18;;;;;;;20.77;11.73;;;4.70;99.90;;;;;;5070257;28;20430;-68
2020/12/17 11:15:44;;;;;;;19.30;11.77;;;4.80;99.90;;;;;;5073865;28;20426;-69
2020/12/17 11:18:13;;;;;;;21.23;11.67;;;4.90;99.90;;;;;;5073257;28;20513;-68
2020/12/17 11:20:40;;;;;;;17.80;10.47;;;5.00;99.90;;;;;;5073649;28;20470;-68
2020/12/17 11:23:07;;;;;;;21.80;11.43;;;5.10;99.90;;;;;;5073826;28;20494;-68
2020/12/17 11:25:36;;;;;;;16.03;10.20;;;5.10;99.90;;;;;;5073654;28;20422;-69
2020/12/17 11:28:04;;;;;;;18.90;10.80;;;5.20;99.90;;;;;;5073498;28;20936;-68
2020/12/17 11:30:31;;;;;;;18.27;10.20;;;5.20;99.90;;;;;;5073505;28;20957;-68
2020/12/17 11:32:57;;;;;;;16.47;10.13;;;5.20;99.90;;;;;;5073379;28;20422;-68
2020/12/17 11:35:24;;;;;;;17.23;9.90;;;5.20;99.90;;;;;;5073602;28;20428;-69
2020/12/17 11:37:51;;;;;;;18.47;9.90;;;5.20;99.90;;;;;;5072997;28;20422;-68
2020/12/17 11:40:19;;;;;;;15.50;9.63;;;5.30;99.90;;;;;;5072934;28;20481;-69
2020/12/17 11:42:46;;;;;;;21.30;11.27;;;5.20;99.90;;;;;;5073306;28;20425;-68
2020/12/17 11:45:14;;;;;;;16.17;9.10;;;5.40;99.90;;;;;;5073424;28;20418;-69
2020/12/17 11:47:41;;;;;;;15.30;8.00;;;5.50;99.90;;;;;;5073399;28;20492;-69
2020/12/17 11:50:09;;;;;;;13.87;9.03;;;5.60;99.90;;;;;;5073319;28;20966;-69
2020/12/17 11:52:36;;;;;;;10.90;8.37;;;5.60;99.90;;;;;;5073178;28;20911;-68
2020/12/17 11:55:05;;;;;;;18.10;10.30;;;5.70;99.90;;;;;;5073194;28;20453;-69
2020/12/17 11:57:32;;;;;;;15.00;10.10;;;5.80;99.90;;;;;;5081734;28;21116;-69
2020/12/17 11:59:59;;;;;;;13.30;8.73;;;5.90;99.90;;;;;;5074946;28;20534;-69
2020/12/17 12:02:26;;;;;;;15.80;9.27;;;6.10;99.90;;;;;;5074720;28;20930;-69
2020/12/17 12:04:53;;;;;;;11.53;7.70;;;6.20;99.90;;;;;;5093153;28;20413;-68
2020/12/17 12:07:23;;;;;;;13.73;8.00;;;6.50;99.90;;;;;;5093034;28;20444;-69
2020/12/17 12:09:50;;;;;;;9.17;6.50;;;6.70;99.90;;;;;;5093163;28;20464;-69
2020/12/17 12:12:16;;;;;;;14.90;7.00;;;6.80;99.90;;;;;;5093103;28;20482;-70
2020/12/17 12:14:43;;;;;;;12.40;7.80;;;7.00;99.90;;;;;;5093071;28;20428;-71
2020/12/17 12:17:10;;;;;;;11.40;7.70;;;7.20;99.90;;;;;;5093140;28;20979;-70
2020/12/17 12:19:37;;;;;;;10.53;6.83;;;7.30;99.90;;;;;;5093143;28;20793;-72
2020/12/17 12:22:04;;;;;;;12.93;6.87;;;7.40;99.90;;;;;;5093009;28;20465;-70
2020/12/17 12:24:31;;;;;;;11.60;6.40;;;7.40;99.90;;;;;;5092650;28;20437;-70
2020/12/17 12:26:58;;;;;;;12.20;6.93;;;7.50;99.90;;;;;;5092044;28;20417;-72
2020/12/17 12:29:25;;;;;;;12.60;8.37;;;7.40;99.90;;;;;;5087254;28;20469;-70
2020/12/17 12:31:52;;;;;;;12.70;8.10;;;7.50;99.90;;;;;;5072463;28;20445;-71
2020/12/17 12:34:19;;;;;;;12.10;6.60;;;7.50;99.90;;;;;;5072326;28;20426;-71
2020/12/17 12:36:49;;;;;;;11.03;7.30;;;7.60;99.90;;;;;;5072376;28;20437;-71
2020/12/17 12:39:16;;;;;;;10.80;7.43;;;7.40;99.90;;;;;;5071991;28;20429;-71